»·PEaware :: SVV5844 PASI-PAJN

SVV5844 :: PASI-PAJN

FLIGHT INFORMATION

Flight Status: Arrived
Operator: Unknown
More flights by this operator :: More flights under this callsign
Pilot: Alan S. (10569)
Aircraft: SAAB 340
(SF34)
More flights by this aircraft type
Origin: PASI Sitka Rocky Gutierrez
United States
Destination: PAJN Juneau Intl
United States
More flights between these airports :: More routes between these airports
Route: BKA3 BKA V428 SSR
File this flight plan on PilotEdge
Remarks: @twitch.tv / aerosimgaming
Altitude:
(Current/Filed)
7,000ft
Speed:
(Current/Filed)
220kts
Departed: 20-Jul-16 09:35 PM
Arrived: 20-Jul-16 10:28 PM
Distance/Time
Traveled:
82nm/0:53
Distance/Time
To Go:
Arrived

Flight Plot

Page will automatically refresh every two minutes.


Map Options




Map Legend


Flown Route
Filed Route
Departure Airport
Arrival Airport
Navaid (VOR, NDB)
Fix

Horizontal Profiles

Position Reports

Time Latitude Longitude Heading Altitude Ground
Speed
20-Jul-16 21:22 57.047690 -135.365462 309 26ft 0kts
20-Jul-16 21:23 57.047690 -135.365462 309 26ft 0kts
20-Jul-16 21:24 57.049023 -135.367991 317 26ft 21kts
20-Jul-16 21:25 57.052859 -135.373955 46 26ft 0kts
20-Jul-16 21:26 57.052859 -135.373955 46 26ft 0kts
20-Jul-16 21:27 57.052859 -135.373955 46 26ft 0kts
20-Jul-16 21:28 57.052859 -135.373955 46 26ft 0kts
20-Jul-16 21:29 57.053298 -135.372715 133 26ft 0kts
20-Jul-16 21:30 57.038362 -135.345508 134 176ft 132kts
20-Jul-16 21:31 57.008438 -135.345272 269 1251ft 145kts
20-Jul-16 21:32 57.029442 -135.407102 307 2623ft 148kts
20-Jul-16 21:33 57.054814 -135.465483 329 4196ft 152kts
20-Jul-16 21:34 57.096561 -135.476190 356 5539ft 157kts
20-Jul-16 21:35 57.139448 -135.477993 1 6477ft 153kts
20-Jul-16 21:36 57.182856 -135.473509 4 6988ft 172kts
20-Jul-16 21:37 57.231280 -135.464951 6 6997ft 185kts
20-Jul-16 21:38 57.282490 -135.457609 4 6994ft 203kts
20-Jul-16 21:39 57.340163 -135.447606 5 6992ft 212kts
20-Jul-16 21:40 57.399321 -135.435385 6 6991ft 216kts
20-Jul-16 21:41 57.458981 -135.422365 6 6988ft 214kts
20-Jul-16 21:42 57.517660 -135.409310 6 6986ft 213kts
20-Jul-16 21:43 57.574189 -135.396761 7 6983ft 213kts
20-Jul-16 21:44 57.632919 -135.383534 7 6981ft 213kts
20-Jul-16 21:45 57.691628 -135.370249 7 6981ft 213kts
20-Jul-16 21:46 57.750492 -135.356889 7 6981ft 213kts
20-Jul-16 21:47 57.809093 -135.343545 7 6981ft 213kts
20-Jul-16 21:48 57.867981 -135.330091 7 6981ft 213kts
20-Jul-16 21:49 57.926405 -135.316707 7 6980ft 211kts
20-Jul-16 21:50 57.984504 -135.303353 7 6981ft 208kts
20-Jul-16 21:51 58.041773 -135.290140 7 6981ft 209kts
20-Jul-16 21:52 58.099621 -135.276743 7 6982ft 211kts
20-Jul-16 21:53 58.158320 -135.263112 7 6982ft 213kts
20-Jul-16 21:54 58.212307 -135.226920 24 6972ft 194kts
20-Jul-16 21:55 58.260766 -135.184341 25 6323ft 192kts
20-Jul-16 21:56 58.308532 -135.140317 27 5624ft 189kts
20-Jul-16 21:57 58.351810 -135.098516 27 5575ft 162kts
20-Jul-16 21:58 58.371590 -135.039194 113 5484ft 154kts
20-Jul-16 21:59 58.360116 -134.956811 87 4700ft 160kts
20-Jul-16 22:00 58.360428 -134.878706 92 3878ft 142kts
20-Jul-16 22:01 58.359911 -134.799926 91 3181ft 148kts
20-Jul-16 22:02 58.344956 -134.736978 191 4517ft 161kts
20-Jul-16 22:03 58.337792 -134.811548 289 5658ft 164kts
20-Jul-16 22:04 58.352072 -134.905769 285 5166ft 205kts
20-Jul-16 22:05 58.363719 -135.007406 282 5382ft 183kts
20-Jul-16 22:06 58.357097 -135.093654 213 5697ft 183kts
20-Jul-16 22:07 58.311813 -135.140536 204 5678ft 182kts
20-Jul-16 22:08 58.267053 -135.180091 204 5679ft 175kts
20-Jul-16 22:09 58.223925 -135.218318 204 5678ft 165kts
20-Jul-16 22:10 58.183153 -135.251548 181 5683ft 160kts
20-Jul-16 22:11 58.173134 -135.201316 46 5695ft 161kts
20-Jul-16 22:12 58.207554 -135.129085 63 5493ft 160kts
20-Jul-16 22:13 58.223274 -135.065403 64 5107ft 159kts
20-Jul-16 22:14 58.262524 -135.038466 8 4429ft 159kts
20-Jul-16 22:15 58.305880 -135.025222 10 3743ft 157kts
20-Jul-16 22:16 58.348331 -135.010719 19 3364ft 153kts
20-Jul-16 22:17 58.357444 -134.939113 91 2854ft 151kts
20-Jul-16 22:18 58.357288 -134.860351 89 2653ft 145kts
20-Jul-16 22:19 58.357310 -134.783062 90 1968ft 145kts
20-Jul-16 22:20 58.358063 -134.709680 88 1213ft 132kts
20-Jul-16 22:21 58.358622 -134.643999 88 716ft 119kts
20-Jul-16 22:22 58.355841 -134.582684 105 25ft 77kts
20-Jul-16 22:23 58.354691 -134.574137 107 25ft 8kts
20-Jul-16 22:24 58.355832 -134.574467 283 25ft 8kts
20-Jul-16 22:25 58.356434 -134.578703 285 25ft 9kts
20-Jul-16 22:26 58.357940 -134.579969 211 25ft 4kts
20-Jul-16 22:27 58.189351 -135.248609 199 5683ft 158kts
20-Jul-16 22:28 58.171985 -135.203752 49 5697ft 161kts
20-Jul-16 22:29 58.357878 -134.733343 88 1450ft 134kts
20-Jul-16 22:30 58.358461 -134.665923 89 913ft 121kts
20-Jul-16 22:31 58.358464 -134.602134 101 133ft 119kts
20-Jul-16 22:32 58.358038 -134.713087 88 1244ft 133kts
20-Jul-16 22:33 58.358589 -134.647109 88 755ft 119kts
20-Jul-16 22:34 58.356159 -134.584935 104 25ft 96kts
20-Jul-16 22:35 58.354730 -134.574366 108 25ft 8kts
20-Jul-16 22:36 58.358287 -134.687448 88 1049ft 125kts
20-Jul-16 22:37 58.358884 -134.623103 88 446ft 122kts

Navigation Log

Ident Type
Flight plan parsing failed, navigation log unavailable